Albany, New York
Traffic Map
Current Weather Conditions
Albany, New York
Few Clouds
Few Clouds
79°
Feels Like: 79°
Wind Chill: 79° Ceiling: Unl
Heat Index: 79° Visibility: 10mi
Dew Point: 54° Wind: 0mph
Humidity: 42% Direction: ° ()
Pressure: 29.99in Gusts: 0mph
Raw Report DataKALB 251751Z 00000KT 10SM FEW049 26/12 A2999 RMK AO2 SLP153 T02610122 10261 20167 58016
Traffic Incident Summary
Active as of:
Severity:
Category:
InformationThere was an issue retrieving the traffic information for this location. Please try a different location or try again shortly.
Advertisements
Track Severe Weather on mobile